createdAt,value
2022-11-08T00:02:26.241Z,11.38
2022-11-08T00:04:53.357Z,11.42
2022-11-08T00:07:38.890Z,11.56
2022-11-08T00:10:25.098Z,11.57
2022-11-08T00:13:10.553Z,11.69
2022-11-08T00:15:38.707Z,11.62
2022-11-08T00:18:07.205Z,11.64
2022-11-08T00:20:34.835Z,11.40
2022-11-08T00:23:02.188Z,11.27
2022-11-08T00:25:29.060Z,11.04
2022-11-08T00:27:57.907Z,10.77
2022-11-08T00:30:24.931Z,10.60
2022-11-08T00:32:51.725Z,10.48
2022-11-08T00:35:18.605Z,10.54
2022-11-08T00:37:45.536Z,10.45
2022-11-08T00:40:12.674Z,10.47
2022-11-08T00:42:39.467Z,10.38
2022-11-08T00:45:06.861Z,10.30
2022-11-08T00:47:33.794Z,10.27
2022-11-08T00:50:00.655Z,10.17
2022-11-08T00:52:27.678Z,10.36
2022-11-08T00:54:54.557Z,10.29
2022-11-08T00:57:27.534Z,10.37
2022-11-08T01:00:08.677Z,10.30
2022-11-08T01:02:35.664Z,10.39
2022-11-08T01:05:02.591Z,10.51
2022-11-08T01:07:29.700Z,10.69
2022-11-08T01:09:56.623Z,10.82
2022-11-08T01:12:23.440Z,10.98
2022-11-08T01:14:50.434Z,10.98
2022-11-08T01:17:17.247Z,10.87
2022-11-08T01:19:44.139Z,10.72
2022-11-08T01:22:10.955Z,10.69
2022-11-08T01:24:38.193Z,10.63
2022-11-08T01:27:05.079Z,10.78
2022-11-08T01:29:33.358Z,10.79
2022-11-08T01:32:00.235Z,10.56
2022-11-08T01:34:27.093Z,10.51
2022-11-08T01:36:53.993Z,10.40
2022-11-08T01:39:20.972Z,10.36
2022-11-08T01:41:47.804Z,10.36
2022-11-08T01:44:17.122Z,10.32
2022-11-08T01:46:47.205Z,10.31
2022-11-08T01:49:31.561Z,10.42
2022-11-08T01:52:04.692Z,10.63
2022-11-08T01:54:43.509Z,10.62
2022-11-08T01:57:16.496Z,10.60
2022-11-08T01:59:45.809Z,10.70
2022-11-08T02:02:13.633Z,10.71
2022-11-08T02:04:42.822Z,10.72
2022-11-08T02:07:12.587Z,10.71
2022-11-08T02:09:42.011Z,10.75
2022-11-08T02:12:10.159Z,10.88
2022-11-08T02:14:38.033Z,10.97
2022-11-08T02:17:07.073Z,10.92
2022-11-08T02:19:44.703Z,10.94
2022-11-08T02:22:38.991Z,10.97
2022-11-08T02:25:06.509Z,10.89
2022-11-08T02:27:33.379Z,10.92
2022-11-08T02:30:00.201Z,10.87
2022-11-08T02:32:27.244Z,10.89
2022-11-08T02:34:59.249Z,10.92
2022-11-08T02:37:27.170Z,10.68
2022-11-08T02:39:54.115Z,10.55
2022-11-08T02:42:21.255Z,10.53
2022-11-08T02:44:48.684Z,10.54
2022-11-08T02:47:16.069Z,10.60
2022-11-08T02:49:43.088Z,10.58
2022-11-08T02:52:10.849Z,10.55
2022-11-08T02:54:37.890Z,10.54
2022-11-08T02:57:04.740Z,10.55
2022-11-08T02:59:31.541Z,10.42
2022-11-08T03:01:58.476Z,10.29
2022-11-08T03:04:25.536Z,10.37
2022-11-08T03:06:52.366Z,10.51
2022-11-08T03:09:19.211Z,10.47
2022-11-08T03:11:46.157Z,10.38
2022-11-08T03:14:13.016Z,10.55
2022-11-08T03:16:39.822Z,10.46
2022-11-08T03:19:06.728Z,10.54
2022-11-08T03:21:35.648Z,10.67
2022-11-08T03:24:02.669Z,10.56
2022-11-08T03:26:29.541Z,10.51
2022-11-08T03:28:56.384Z,10.39
2022-11-08T03:31:23.215Z,10.34
2022-11-08T03:33:50.061Z,10.42
2022-11-08T03:36:17.019Z,10.39
2022-11-08T03:38:43.904Z,10.26
2022-11-08T03:41:10.732Z,10.19
2022-11-08T03:43:37.574Z,9.96
2022-11-08T03:46:04.466Z,9.87
2022-11-08T03:48:31.307Z,9.70
2022-11-08T03:50:58.207Z,9.60
2022-11-08T03:53:25.071Z,9.47
2022-11-08T03:55:51.974Z,9.33
2022-11-08T03:58:18.989Z,9.31
2022-11-08T04:00:46.953Z,9.35
2022-11-08T04:03:13.845Z,9.49
2022-11-08T04:05:40.693Z,9.48
2022-11-08T04:08:07.606Z,9.72
2022-11-08T04:10:34.447Z,9.75
2022-11-08T04:13:20.344Z,9.75
2022-11-08T04:15:53.190Z,9.90
2022-11-08T04:18:38.948Z,10.04
2022-11-08T04:21:21.997Z,10.09
2022-11-08T04:23:51.471Z,10.13
2022-11-08T04:26:19.702Z,10.26
2022-11-08T04:28:46.619Z,10.14
2022-11-08T04:31:16.953Z,10.06
2022-11-08T04:33:43.994Z,9.95
2022-11-08T04:36:16.246Z,9.77
2022-11-08T04:38:43.266Z,9.82
2022-11-08T04:41:12.917Z,9.69
2022-11-08T04:43:40.191Z,9.97
2022-11-08T04:46:18.992Z,10.00
2022-11-08T04:48:46.572Z,9.89
2022-11-08T04:51:15.933Z,10.05
2022-11-08T04:53:42.928Z,10.28
2022-11-08T04:56:13.053Z,10.37
2022-11-08T04:58:44.860Z,10.33
2022-11-08T05:01:13.966Z,10.56
2022-11-08T05:03:41.366Z,10.63
2022-11-08T05:06:12.196Z,10.64
2022-11-08T05:08:39.477Z,10.63
2022-11-08T05:11:10.564Z,10.49
2022-11-08T05:13:38.259Z,10.60
2022-11-08T05:16:14.167Z,10.68
2022-11-08T05:18:42.120Z,10.73
2022-11-08T05:21:30.289Z,10.76
2022-11-08T05:23:57.522Z,10.67
2022-11-08T05:26:25.246Z,10.74
2022-11-08T05:28:52.115Z,10.71
2022-11-08T05:31:19.355Z,10.73
2022-11-08T05:33:46.470Z,10.78
2022-11-08T05:36:14.928Z,10.79
2022-11-08T05:38:43.072Z,10.72
2022-11-08T05:41:18.466Z,10.55
2022-11-08T05:43:47.374Z,10.54
2022-11-08T05:46:15.810Z,10.57
2022-11-08T05:48:43.581Z,10.63
2022-11-08T05:51:12.170Z,10.62
2022-11-08T05:53:42.760Z,10.66
2022-11-08T05:56:10.257Z,10.78
2022-11-08T05:58:37.550Z,10.99
2022-11-08T06:01:12.858Z,11.06
2022-11-08T06:03:40.175Z,11.06
2022-11-08T06:06:27.436Z,11.21
2022-11-08T06:08:54.813Z,11.25
2022-11-08T06:11:24.906Z,11.32
2022-11-08T06:13:52.754Z,11.43
2022-11-08T06:16:21.061Z,11.39
2022-11-08T06:18:48.373Z,11.43
2022-11-08T06:21:18.515Z,11.48
2022-11-08T06:23:45.558Z,11.50
2022-11-08T06:26:12.950Z,11.60
2022-11-08T06:28:39.918Z,11.75
2022-11-08T06:31:06.921Z,11.75
2022-11-08T06:33:34.349Z,11.94
2022-11-08T06:36:01.613Z,11.92
2022-11-08T06:38:28.563Z,11.93
2022-11-08T06:40:59.350Z,11.83
2022-11-08T06:43:26.668Z,11.94
2022-11-08T06:45:53.928Z,12.01
2022-11-08T06:48:20.760Z,12.10
2022-11-08T06:50:48.274Z,12.21
2022-11-08T06:53:15.396Z,12.19
2022-11-08T06:55:42.472Z,12.39
2022-11-08T06:58:10.681Z,12.44
2022-11-08T07:00:38.058Z,12.48
2022-11-08T07:03:05.089Z,12.36
2022-11-08T07:05:34.385Z,12.38
2022-11-08T07:08:02.202Z,12.37
2022-11-08T07:10:31.133Z,12.41
2022-11-08T07:12:59.324Z,12.46
2022-11-08T07:15:26.200Z,12.60
2022-11-08T07:17:53.175Z,12.74
2022-11-08T07:20:22.254Z,12.84
2022-11-08T07:22:49.086Z,12.79
2022-11-08T07:25:16.187Z,12.90
2022-11-08T07:27:43.001Z,12.90
2022-11-08T07:30:10.493Z,12.88
2022-11-08T07:32:37.423Z,13.06
2022-11-08T07:35:05.042Z,13.27
2022-11-08T07:37:32.810Z,13.29
2022-11-08T07:39:59.725Z,13.27
2022-11-08T07:42:34.313Z,13.39
2022-11-08T07:45:14.037Z,13.23
2022-11-08T07:47:41.167Z,13.36
2022-11-08T07:50:08.929Z,12.97
2022-11-08T07:52:35.757Z,13.10
2022-11-08T07:55:02.762Z,13.28
2022-11-08T07:57:29.959Z,13.36
2022-11-08T07:59:56.856Z,13.18
2022-11-08T08:02:24.092Z,13.24
2022-11-08T08:04:51.144Z,13.26
2022-11-08T08:07:18.156Z,13.47
2022-11-08T08:09:45.102Z,13.59
2022-11-08T08:12:12.288Z,13.78
2022-11-08T08:14:39.182Z,13.65
2022-11-08T08:17:06.052Z,14.06
2022-11-08T08:19:33.007Z,14.12
2022-11-08T08:21:59.876Z,14.21
2022-11-08T08:24:26.790Z,14.24
2022-11-08T08:26:54.106Z,14.17
2022-11-08T08:29:21.049Z,14.26
2022-11-08T08:31:47.917Z,14.24
2022-11-08T08:34:15.831Z,14.32
2022-11-08T08:36:42.717Z,14.34
2022-11-08T08:39:10.017Z,14.32
2022-11-08T08:41:36.974Z,14.31
2022-11-08T08:44:04.082Z,14.35
2022-11-08T08:46:31.123Z,14.26
2022-11-08T08:48:58.097Z,14.41
2022-11-08T08:51:25.158Z,14.37
2022-11-08T08:53:52.008Z,14.28
2022-11-08T08:56:18.928Z,14.56
2022-11-08T08:58:45.927Z,14.62
2022-11-08T09:04:02.558Z,14.61
2022-11-08T09:06:30.747Z,14.72
2022-11-08T09:08:57.844Z,14.76
2022-11-08T09:11:24.685Z,14.64
2022-11-08T09:13:51.712Z,14.53
2022-11-08T09:16:18.758Z,14.44
2022-11-08T09:18:45.729Z,14.54
2022-11-08T09:21:12.791Z,14.65
2022-11-08T09:23:41.604Z,14.72
2022-11-08T09:26:08.809Z,14.72
2022-11-08T09:28:36.752Z,14.62
2022-11-08T09:31:09.478Z,14.61
2022-11-08T09:33:39.095Z,14.71
2022-11-08T09:36:08.003Z,14.73
2022-11-08T09:38:35.376Z,14.79
2022-11-08T09:41:33.040Z,14.84
2022-11-08T09:44:15.868Z,15.02
2022-11-08T09:46:51.963Z,15.08
2022-11-08T09:49:26.349Z,15.13
2022-11-08T09:51:53.563Z,15.09
2022-11-08T09:54:38.596Z,15.05
2022-11-08T09:57:09.243Z,15.14
2022-11-08T09:59:46.368Z,15.12
2022-11-08T10:02:18.633Z,15.11
2022-11-08T10:04:52.750Z,15.21
2022-11-08T10:07:22.811Z,15.32
2022-11-08T10:10:08.393Z,15.50
2022-11-08T10:13:05.493Z,15.39
2022-11-08T10:15:48.436Z,15.38
2022-11-08T10:18:32.552Z,15.53
2022-11-08T10:21:08.821Z,15.37
2022-11-08T10:23:46.284Z,15.49
2022-11-08T10:26:18.720Z,15.49
2022-11-08T10:28:55.087Z,15.47
2022-11-08T10:31:22.291Z,15.53
2022-11-08T10:33:55.066Z,15.62
2022-11-08T10:36:51.227Z,15.69
2022-11-08T10:39:26.764Z,15.86
2022-11-08T10:42:08.279Z,16.10
2022-11-08T10:44:36.192Z,16.38
2022-11-08T10:47:06.838Z,16.64
2022-11-08T10:49:42.968Z,16.90
2022-11-08T10:52:12.619Z,17.02
2022-11-08T10:54:57.040Z,17.13
2022-11-08T10:57:28.389Z,17.31
2022-11-08T10:59:57.058Z,17.54
2022-11-08T11:02:25.727Z,17.50
2022-11-08T11:04:54.222Z,17.47
2022-11-08T11:07:34.616Z,17.42
2022-11-08T11:10:29.811Z,17.11
2022-11-08T11:13:09.148Z,16.90
2022-11-08T11:15:58.576Z,17.17
2022-11-08T11:18:28.300Z,17.17
2022-11-08T11:21:04.161Z,17.31
2022-11-08T11:23:34.062Z,17.46
2022-11-08T11:26:01.372Z,17.30
2022-11-08T11:28:28.544Z,17.24
2022-11-08T11:31:16.105Z,17.22
2022-11-08T11:33:46.288Z,17.08
2022-11-08T11:36:18.884Z,16.95
2022-11-08T11:39:12.696Z,16.73
2022-11-08T11:42:24.418Z,17.04
2022-11-08T11:45:05.976Z,17.04
2022-11-08T11:47:47.968Z,17.21
2022-11-08T11:50:38.072Z,17.29
2022-11-08T11:53:12.842Z,17.21
2022-11-08T11:56:21.587Z,17.44
2022-11-08T11:58:51.151Z,17.38
2022-11-08T12:01:33.403Z,17.36
2022-11-08T12:04:25.815Z,17.32
2022-11-08T12:07:11.851Z,17.51
2022-11-08T12:10:03.517Z,17.49
2022-11-08T12:12:50.220Z,17.56
2022-11-08T12:15:20.145Z,17.63
2022-11-08T12:17:53.178Z,17.70
2022-11-08T12:20:27.514Z,17.67
2022-11-08T12:23:03.088Z,17.64
2022-11-08T12:25:43.833Z,17.71
2022-11-08T12:28:48.272Z,17.81
2022-11-08T12:31:28.711Z,17.76
2022-11-08T12:34:29.998Z,17.80
2022-11-08T12:37:21.589Z,17.76
2022-11-08T12:40:07.192Z,17.71
2022-11-08T12:43:05.045Z,17.43
2022-11-08T12:45:43.894Z,17.62
2022-11-08T12:48:38.334Z,17.56
2022-11-08T12:51:28.545Z,17.64
2022-11-08T12:54:20.307Z,17.52
2022-11-08T12:56:49.153Z,17.56
2022-11-08T12:59:44.853Z,17.55
2022-11-08T13:02:25.313Z,17.42
2022-11-08T13:05:21.414Z,17.26
2022-11-08T13:07:51.296Z,17.31
2022-11-08T13:10:24.206Z,17.31
2022-11-08T13:13:20.804Z,17.29
2022-11-08T13:16:17.186Z,17.26
2022-11-08T13:18:58.071Z,17.19
2022-11-08T13:21:28.076Z,17.26
2022-11-08T13:24:42.887Z,17.32
2022-11-08T13:27:23.668Z,17.36
2022-11-08T13:29:52.774Z,17.36
2022-11-08T13:32:54.979Z,17.18
2022-11-08T13:35:46.330Z,17.02
2022-11-08T13:38:25.044Z,17.12
2022-11-08T13:41:09.808Z,17.17
2022-11-08T13:43:36.713Z,17.08
2022-11-08T13:46:28.151Z,17.02
2022-11-08T13:48:58.247Z,17.06
2022-11-08T13:51:30.481Z,16.96
2022-11-08T13:54:02.631Z,17.03
2022-11-08T13:56:47.788Z,17.03
2022-11-08T13:59:33.138Z,17.02
2022-11-08T14:02:25.360Z,17.09
2022-11-08T14:04:53.959Z,16.98
2022-11-08T14:07:36.017Z,16.89
2022-11-08T14:10:20.683Z,16.77
2022-11-08T14:13:23.015Z,16.65
2022-11-08T14:16:16.074Z,16.63
2022-11-08T14:18:44.200Z,16.71
2022-11-08T14:21:18.289Z,16.66
2022-11-08T14:23:49.842Z,16.55
2022-11-08T14:26:24.493Z,16.63
2022-11-08T14:28:53.024Z,16.73
2022-11-08T14:31:32.791Z,16.66
2022-11-08T14:34:00.600Z,16.62
2022-11-08T14:36:30.096Z,16.59
2022-11-08T14:39:08.892Z,16.52
2022-11-08T14:58:34.685Z,16.15
2022-11-08T15:01:03.857Z,16.12
2022-11-08T15:03:33.061Z,15.99
2022-11-08T15:06:02.779Z,16.01
2022-11-08T15:08:53.121Z,16.00
2022-11-08T15:11:32.302Z,15.74
2022-11-08T15:14:05.698Z,15.71
2022-11-08T15:16:50.328Z,15.68
2022-11-08T15:19:39.114Z,15.48
2022-11-08T15:22:44.095Z,15.49
2022-11-08T15:25:32.905Z,15.33
2022-11-08T15:28:21.694Z,15.20
2022-11-08T15:30:58.426Z,14.96
2022-11-08T15:33:30.067Z,14.84
2022-11-08T15:35:59.613Z,14.76
2022-11-08T15:38:36.364Z,14.85
2022-11-08T15:41:05.324Z,14.75
2022-11-08T15:43:32.152Z,14.60
2022-11-08T15:46:00.863Z,14.59
2022-11-08T15:48:28.231Z,14.47
2022-11-08T15:50:59.143Z,14.48
2022-11-08T15:53:27.057Z,14.40
2022-11-08T15:56:04.782Z,14.23
2022-11-08T15:58:35.043Z,14.36
2022-11-08T16:01:03.711Z,14.37
2022-11-08T16:03:31.193Z,14.22
2022-11-08T16:05:58.237Z,14.16
2022-11-08T16:08:25.317Z,14.03
2022-11-08T16:10:57.216Z,14.00
2022-11-08T16:13:28.104Z,14.04
2022-11-08T16:15:55.752Z,14.05
2022-11-08T16:18:23.742Z,13.95
2022-11-08T16:20:50.877Z,13.99
2022-11-08T16:23:18.171Z,13.98
2022-11-08T16:25:50.421Z,13.89
2022-11-08T16:28:25.122Z,13.94
2022-11-08T16:30:52.177Z,13.99
2022-11-08T16:33:24.362Z,13.99
2022-11-08T16:35:54.121Z,13.82
2022-11-08T16:38:35.986Z,13.68
2022-11-08T16:41:03.893Z,13.68
2022-11-08T16:43:31.190Z,13.71
2022-11-08T16:46:05.665Z,13.63
2022-11-08T16:48:36.600Z,13.67
2022-11-08T16:51:06.619Z,13.70
2022-11-08T16:57:34.701Z,13.83
2022-11-08T17:00:02.653Z,13.86
2022-11-08T17:02:33.319Z,13.71
2022-11-08T17:05:00.187Z,13.85
2022-11-08T17:07:28.286Z,13.69
2022-11-08T17:09:55.156Z,13.61
2022-11-08T17:12:22.144Z,13.96
2022-11-08T17:14:49.199Z,13.93
2022-11-08T17:17:16.157Z,13.84
2022-11-08T17:19:43.137Z,13.81
2022-11-08T17:22:09.961Z,13.74
2022-11-08T17:24:36.953Z,13.76
2022-11-08T17:27:05.004Z,13.61
2022-11-08T17:29:32.299Z,13.56
2022-11-08T17:31:59.199Z,13.49
2022-11-08T17:34:26.168Z,13.46
2022-11-08T17:36:53.096Z,13.56
2022-11-08T17:39:20.056Z,13.59
2022-11-08T17:41:46.983Z,13.56
2022-11-08T17:44:14.711Z,13.50
2022-11-08T17:46:41.594Z,13.50
2022-11-08T17:49:09.297Z,13.48
2022-11-08T17:51:36.712Z,13.46
2022-11-08T17:54:04.001Z,13.60
2022-11-08T17:56:31.086Z,13.56
2022-11-08T17:58:57.992Z,13.53
2022-11-08T18:01:25.043Z,13.51
2022-11-08T18:03:52.078Z,13.48
2022-11-08T18:06:19.195Z,13.33
2022-11-08T18:08:46.060Z,13.10
2022-11-08T18:11:13.054Z,12.84
2022-11-08T18:13:40.122Z,12.87
2022-11-08T18:16:16.156Z,12.82
2022-11-08T18:18:45.827Z,12.79
2022-11-08T18:21:14.155Z,12.91
2022-11-08T18:23:46.325Z,12.93
2022-11-08T18:26:14.699Z,12.89
2022-11-08T18:28:43.186Z,12.97
2022-11-08T18:31:13.034Z,12.92
2022-11-08T18:33:41.141Z,13.06
2022-11-08T18:36:15.333Z,13.05
2022-11-08T18:38:44.743Z,13.01
2022-11-08T18:41:25.270Z,12.88
2022-11-08T18:43:52.927Z,12.78
2022-11-08T18:46:22.445Z,12.67
2022-11-08T18:48:50.544Z,12.68
2022-11-08T18:51:20.235Z,12.76
2022-11-08T18:53:47.171Z,12.48
2022-11-08T18:56:14.832Z,12.52
2022-11-08T18:58:43.623Z,12.16
2022-11-08T19:01:10.921Z,12.10
2022-11-08T19:03:38.313Z,12.02
2022-11-08T19:06:06.569Z,12.05
2022-11-08T19:08:34.151Z,12.06
2022-11-08T19:11:04.033Z,11.97
2022-11-08T19:13:32.913Z,12.06
2022-11-08T19:16:11.991Z,12.06
2022-11-08T19:18:38.934Z,12.19
2022-11-08T19:21:09.773Z,12.23
2022-11-08T19:23:38.355Z,12.15
2022-11-08T19:26:08.448Z,12.21
2022-11-08T19:28:37.851Z,12.25
2022-11-08T19:31:05.674Z,12.28
2022-11-08T19:33:33.728Z,12.17
2022-11-08T19:36:13.717Z,11.98
2022-11-08T19:38:41.352Z,11.90
2022-11-08T19:41:13.955Z,12.01
2022-11-08T19:43:42.511Z,11.97
2022-11-08T19:46:13.440Z,11.97
2022-11-08T19:48:42.303Z,11.98
2022-11-08T19:51:13.656Z,11.97
2022-11-08T19:53:41.190Z,11.88
2022-11-08T19:56:11.372Z,11.82
2022-11-08T19:58:38.899Z,11.71
2022-11-08T20:01:20.578Z,11.74
2022-11-08T20:03:48.853Z,11.79
2022-11-08T20:06:19.504Z,11.77
2022-11-08T20:08:51.637Z,11.78
2022-11-08T20:11:24.802Z,11.84
2022-11-08T20:13:52.562Z,11.64
2022-11-08T20:16:26.356Z,11.69
2022-11-08T20:19:02.223Z,11.36
2022-11-08T20:21:29.452Z,11.45
2022-11-08T20:23:56.319Z,11.48
2022-11-08T20:26:25.400Z,11.29
2022-11-08T20:28:57.098Z,11.15
2022-11-08T20:31:25.429Z,11.16
2022-11-08T20:33:53.738Z,11.25
2022-11-08T20:36:22.995Z,11.22
2022-11-08T20:38:54.059Z,11.20
2022-11-08T20:41:21.108Z,11.02
2022-11-08T20:43:48.043Z,10.94
2022-11-08T20:46:19.390Z,10.85
2022-11-08T20:48:51.780Z,10.82
2022-11-08T20:51:20.986Z,10.66
2022-11-08T20:53:48.401Z,10.86
2022-11-08T20:56:20.341Z,10.87
2022-11-08T20:58:48.911Z,10.68
2022-11-08T21:01:22.313Z,10.55
2022-11-08T21:03:49.815Z,10.54
2022-11-08T21:06:19.857Z,10.46
2022-11-08T21:09:12.692Z,10.49
2022-11-08T21:11:35.522Z,10.46
2022-11-08T21:14:03.776Z,10.20
2022-11-08T21:16:38.303Z,10.20
2022-11-08T21:19:14.158Z,10.36
2022-11-08T21:21:41.837Z,10.51
2022-11-08T21:24:13.200Z,10.72
2022-11-08T21:26:40.273Z,10.79
2022-11-08T21:29:07.698Z,10.65
2022-11-08T21:31:34.705Z,10.57
2022-11-08T21:34:01.584Z,10.61
2022-11-08T21:36:29.265Z,10.62
2022-11-08T21:38:56.467Z,10.53
2022-11-08T21:41:23.371Z,10.54
2022-11-08T21:43:50.307Z,10.57
2022-11-08T21:46:22.670Z,10.43
2022-11-08T21:48:57.632Z,10.05
2022-11-08T21:51:25.461Z,9.96
2022-11-08T21:53:57.803Z,9.88
2022-11-08T21:56:28.910Z,9.93
2022-11-08T21:58:56.112Z,9.70
2022-11-08T22:01:28.850Z,9.84
2022-11-08T22:03:56.996Z,9.82
2022-11-08T22:06:24.046Z,9.71
2022-11-08T22:08:51.108Z,9.75
2022-11-08T22:11:18.409Z,9.87
2022-11-08T22:13:45.287Z,9.93
2022-11-08T22:16:12.266Z,10.12
2022-11-08T22:21:38.285Z,10.36
2022-11-08T22:24:06.242Z,10.45
2022-11-08T22:26:33.156Z,10.51
2022-11-08T22:29:00.069Z,10.43
2022-11-08T22:31:27.252Z,10.25
2022-11-08T22:33:54.245Z,10.13
2022-11-08T22:36:21.125Z,9.96
2022-11-08T22:38:48.416Z,9.97
2022-11-08T22:41:17.046Z,9.96
2022-11-08T22:43:44.704Z,9.70
2022-11-08T22:46:11.626Z,9.72
2022-11-08T22:48:38.555Z,9.62
2022-11-08T22:51:05.472Z,9.72
2022-11-08T22:53:32.967Z,9.77
2022-11-08T22:56:00.947Z,9.98
2022-11-08T22:58:29.214Z,10.19
2022-11-08T23:00:56.089Z,10.07
2022-11-08T23:03:23.157Z,9.89
2022-11-08T23:05:55.082Z,9.82
2022-11-08T23:08:23.911Z,9.82
2022-11-08T23:11:09.327Z,9.71
2022-11-08T23:13:56.017Z,9.79
2022-11-08T23:16:35.068Z,9.83
2022-11-08T23:19:24.039Z,9.82
2022-11-08T23:22:10.883Z,9.87
2022-11-08T23:24:37.899Z,9.77
2022-11-08T23:27:23.941Z,9.65
2022-11-08T23:30:09.822Z,9.80
2022-11-08T23:32:41.034Z,9.86
2022-11-08T23:35:08.241Z,9.80
2022-11-08T23:37:35.247Z,9.95
2022-11-08T23:40:20.666Z,9.82
2022-11-08T23:43:06.149Z,9.88
2022-11-08T23:45:32.961Z,10.02
2022-11-08T23:48:01.057Z,10.02
2022-11-08T23:50:27.923Z,10.00
2022-11-08T23:52:54.834Z,10.11
2022-11-08T23:55:21.670Z,10.13
2022-11-08T23:57:48.878Z,10.18
